createdAt,value
2018-04-17T00:00:05.023Z,12.90
2018-04-17T00:02:32.676Z,12.83
2018-04-17T00:05:00.205Z,12.75
2018-04-17T00:07:27.741Z,12.71
2018-04-17T00:09:55.213Z,12.63
2018-04-17T00:12:22.700Z,12.55
2018-04-17T00:14:50.214Z,12.54
2018-04-17T00:17:17.706Z,12.49
2018-04-17T00:19:45.183Z,12.44
2018-04-17T00:22:12.673Z,12.40
2018-04-17T00:24:40.145Z,12.39
2018-04-17T00:27:07.616Z,12.33
2018-04-17T00:29:35.085Z,12.29
2018-04-17T00:32:02.583Z,12.29
2018-04-17T00:34:30.073Z,12.27
2018-04-17T00:36:57.560Z,12.26
2018-04-17T00:39:25.046Z,12.30
2018-04-17T00:41:52.647Z,12.30
2018-04-17T00:44:20.150Z,12.29
2018-04-17T00:46:47.609Z,12.31
2018-04-17T00:49:15.095Z,12.20
2018-04-17T00:51:42.565Z,12.10
2018-04-17T00:54:10.123Z,12.02
2018-04-17T00:56:37.583Z,11.95
2018-04-17T00:59:05.075Z,11.87
2018-04-17T01:01:32.566Z,11.86
2018-04-17T01:04:00.040Z,11.79
2018-04-17T01:06:27.512Z,11.77
2018-04-17T01:08:54.997Z,11.75
2018-04-17T01:11:22.459Z,11.66
2018-04-17T01:13:49.929Z,11.64
2018-04-17T01:16:17.512Z,11.57
2018-04-17T01:18:45.137Z,11.53
2018-04-17T01:21:12.631Z,11.48
2018-04-17T01:23:40.138Z,11.43
2018-04-17T01:26:07.964Z,11.42
2018-04-17T01:28:35.517Z,11.34
2018-04-17T01:31:03.012Z,11.26
2018-04-17T01:33:30.514Z,11.16
2018-04-17T01:35:58.026Z,11.05
2018-04-17T01:38:25.540Z,11.03
2018-04-17T01:40:53.041Z,11.01
2018-04-17T01:43:20.763Z,10.97
2018-04-17T01:45:48.234Z,10.90
2018-04-17T01:48:15.973Z,10.83
2018-04-17T01:50:43.457Z,10.81
2018-04-17T01:53:10.952Z,10.73
2018-04-17T01:55:38.435Z,10.71
2018-04-17T01:58:05.915Z,10.69
2018-04-17T02:00:33.397Z,10.71
2018-04-17T02:03:00.890Z,10.64
2018-04-17T02:05:28.378Z,10.60
2018-04-17T02:07:55.902Z,10.65
2018-04-17T02:10:23.372Z,10.62
2018-04-17T02:12:51.101Z,10.58
2018-04-17T02:15:18.592Z,10.51
2018-04-17T02:17:46.200Z,10.47
2018-04-17T02:20:13.656Z,10.52
2018-04-17T02:22:41.146Z,10.43
2018-04-17T02:25:08.606Z,10.43
2018-04-17T02:27:36.181Z,10.42
2018-04-17T02:30:03.664Z,10.35
2018-04-17T02:32:31.134Z,10.35
2018-04-17T02:34:58.637Z,10.33
2018-04-17T02:37:26.104Z,10.31
2018-04-17T02:39:53.593Z,10.30
2018-04-17T02:42:21.084Z,10.26
2018-04-17T02:44:48.746Z,10.23
2018-04-17T02:47:16.241Z,10.21
2018-04-17T02:49:43.705Z,10.20
2018-04-17T02:52:11.213Z,10.22
2018-04-17T02:54:38.713Z,10.18
2018-04-17T02:57:06.199Z,10.15
2018-04-17T02:59:33.717Z,10.13
2018-04-17T03:02:01.234Z,10.13
2018-04-17T03:04:28.711Z,10.08
2018-04-17T03:06:56.199Z,10.06
2018-04-17T03:09:23.662Z,9.99
2018-04-17T03:11:51.197Z,9.99
2018-04-17T03:14:18.684Z,9.94
2018-04-17T03:16:46.170Z,9.91
2018-04-17T03:19:13.643Z,9.89
2018-04-17T03:21:41.146Z,9.89
2018-04-17T03:24:08.624Z,9.89
2018-04-17T03:26:36.198Z,9.81
2018-04-17T03:29:03.792Z,9.75
2018-04-17T03:31:31.267Z,9.74
2018-04-17T03:33:58.846Z,9.71
2018-04-17T03:36:26.358Z,9.68
2018-04-17T03:38:53.887Z,9.68
2018-04-17T03:41:21.399Z,9.63
2018-04-17T03:43:48.861Z,9.59
2018-04-17T03:46:16.350Z,9.58
2018-04-17T03:48:43.831Z,9.50
2018-04-17T03:51:11.315Z,9.51
2018-04-17T03:53:38.784Z,9.47
2018-04-17T03:56:06.261Z,9.41
2018-04-17T03:58:33.774Z,9.39
2018-04-17T04:01:01.287Z,9.41
2018-04-17T04:03:28.775Z,9.39
2018-04-17T04:05:56.268Z,9.38
2018-04-17T04:08:23.783Z,9.29
2018-04-17T04:10:51.270Z,9.83
2018-04-17T04:13:18.735Z,10.01
2018-04-17T04:15:46.220Z,10.18
2018-04-17T04:18:25.479Z,10.44
2018-04-17T04:21:04.764Z,10.48
2018-04-17T04:23:44.264Z,10.56
2018-04-17T04:26:24.491Z,10.65
2018-04-17T04:28:51.967Z,10.77
2018-04-17T04:31:19.578Z,10.86
2018-04-17T04:33:47.053Z,11.22
2018-04-17T04:36:14.541Z,11.08
2018-04-17T04:38:42.021Z,10.97
2018-04-17T04:41:09.532Z,10.86
2018-04-17T04:43:37.159Z,10.85
2018-04-17T04:46:04.688Z,10.71
2018-04-17T04:48:32.271Z,10.78
2018-04-17T04:50:59.827Z,10.84
2018-04-17T04:53:27.508Z,10.76
2018-04-17T04:55:55.019Z,10.80
2018-04-17T04:58:22.490Z,10.76
2018-04-17T05:00:50.208Z,10.81
2018-04-17T05:03:17.687Z,10.68
2018-04-17T05:05:45.335Z,10.76
2018-04-17T05:08:12.827Z,10.91
2018-04-17T05:10:40.416Z,11.09
2018-04-17T05:13:07.894Z,11.20
2018-04-17T05:15:35.391Z,11.35
2018-04-17T05:18:02.889Z,11.71
2018-04-17T05:20:30.538Z,11.81
2018-04-17T05:22:58.050Z,12.20
2018-04-17T05:25:25.522Z,12.19
2018-04-17T05:27:52.984Z,12.03
2018-04-17T05:30:20.466Z,12.56
2018-04-17T05:32:47.957Z,12.37
2018-04-17T05:35:15.512Z,12.20
2018-04-17T05:37:43.083Z,12.10
2018-04-17T05:40:10.722Z,12.36
2018-04-17T05:42:38.442Z,13.10
2018-04-17T05:45:06.039Z,13.27
2018-04-17T05:47:33.572Z,12.90
2018-04-17T05:50:01.040Z,12.71
2018-04-17T05:52:28.581Z,13.12
2018-04-17T05:54:56.082Z,13.14
2018-04-17T05:57:23.603Z,13.16
2018-04-17T05:59:51.128Z,13.00
2018-04-17T06:02:18.648Z,12.89
2018-04-17T06:04:46.136Z,12.85
2018-04-17T06:07:13.684Z,13.19
2018-04-17T06:09:41.193Z,13.15
2018-04-17T06:12:08.739Z,13.40
2018-04-17T06:14:36.221Z,13.80
2018-04-17T06:17:03.704Z,14.36
2018-04-17T06:19:31.176Z,14.93
2018-04-17T06:21:58.659Z,14.67
2018-04-17T06:24:26.130Z,14.26
2018-04-17T06:26:53.623Z,14.57
2018-04-17T06:29:21.132Z,14.46
2018-04-17T06:31:48.633Z,14.52
2018-04-17T06:34:16.153Z,14.37
2018-04-17T06:36:43.831Z,14.49
2018-04-17T06:39:11.376Z,14.95
2018-04-17T06:41:38.916Z,15.07
2018-04-17T06:44:06.369Z,15.01
2018-04-17T06:46:33.868Z,14.85
2018-04-17T06:49:01.397Z,15.00
2018-04-17T06:51:28.888Z,15.44
2018-04-17T06:53:56.939Z,15.97
2018-04-17T06:56:24.420Z,16.02
2018-04-17T06:58:51.879Z,15.87
2018-04-17T07:01:19.365Z,16.05
2018-04-17T07:03:46.847Z,16.27
2018-04-17T07:06:14.761Z,16.25
2018-04-17T07:08:42.253Z,16.25
2018-04-17T07:11:09.716Z,16.47
2018-04-17T07:13:37.179Z,16.86
2018-04-17T07:16:04.720Z,17.13
2018-04-17T07:18:32.198Z,17.19
2018-04-17T07:20:59.653Z,17.41
2018-04-17T07:23:27.144Z,17.30
2018-04-17T07:25:54.618Z,17.16
2018-04-17T07:28:22.112Z,17.33
2018-04-17T07:30:49.588Z,17.35
2018-04-17T07:33:17.178Z,17.42
2018-04-17T07:35:44.675Z,17.35
2018-04-17T07:38:12.162Z,18.17
2018-04-17T07:40:39.641Z,17.98
2018-04-17T07:43:07.130Z,17.97
2018-04-17T07:45:34.593Z,18.46
2018-04-17T07:48:16.915Z,18.86
2018-04-17T07:50:44.428Z,18.89
2018-04-17T07:53:12.118Z,18.90
2018-04-17T07:55:39.628Z,18.72
2018-04-17T07:58:07.138Z,18.58
2018-04-17T08:00:34.648Z,18.14
2018-04-17T08:03:02.156Z,18.55
2018-04-17T08:05:29.734Z,18.45
2018-04-17T08:07:57.442Z,18.61
2018-04-17T08:10:24.903Z,18.69
2018-04-17T08:12:52.411Z,18.80
2018-04-17T08:15:19.897Z,18.67
2018-04-17T08:17:47.581Z,19.02
2018-04-17T08:20:15.072Z,19.21
2018-04-17T08:22:42.568Z,19.22
2018-04-17T08:25:10.221Z,19.49
2018-04-17T08:27:37.715Z,19.33
2018-04-17T08:30:05.279Z,19.06
2018-04-17T08:32:32.906Z,18.88
2018-04-17T08:35:00.396Z,19.53
2018-04-17T08:37:27.891Z,19.69
2018-04-17T08:39:55.450Z,19.42
2018-04-17T08:42:22.933Z,19.52
2018-04-17T08:44:50.488Z,19.69
2018-04-17T08:47:18.178Z,19.79
2018-04-17T08:49:45.677Z,19.95
2018-04-17T08:52:13.167Z,19.81
2018-04-17T08:54:40.827Z,19.91
2018-04-17T08:57:08.358Z,20.27
2018-04-17T08:59:35.846Z,20.51
2018-04-17T09:02:03.363Z,20.93
2018-04-17T09:04:31.887Z,21.40
2018-04-17T09:06:59.393Z,21.13
2018-04-17T09:09:26.881Z,20.81
2018-04-17T09:11:54.427Z,20.55
2018-04-17T09:14:21.980Z,20.90
2018-04-17T09:16:49.471Z,21.14
2018-04-17T09:19:16.966Z,21.46
2018-04-17T09:21:44.449Z,21.70
2018-04-17T09:24:11.923Z,22.05
2018-04-17T09:26:39.407Z,21.97
2018-04-17T09:29:07.170Z,22.17
2018-04-17T09:31:34.734Z,22.06
2018-04-17T09:34:02.205Z,22.16
2018-04-17T09:36:29.679Z,22.28
2018-04-17T09:38:57.142Z,22.43
2018-04-17T09:41:25.004Z,22.59
2018-04-17T09:43:52.497Z,22.54
2018-04-17T09:46:19.996Z,22.59
2018-04-17T09:48:47.463Z,22.71
2018-04-17T09:51:14.985Z,22.43
2018-04-17T09:53:42.444Z,22.35
2018-04-17T09:56:09.988Z,21.83
2018-04-17T09:58:37.495Z,22.14
2018-04-17T10:01:05.005Z,22.21
2018-04-17T10:03:32.510Z,22.20
2018-04-17T10:06:00.200Z,22.25
2018-04-17T10:08:27.689Z,22.12
2018-04-17T10:10:55.180Z,22.34
2018-04-17T10:13:22.669Z,22.57
2018-04-17T10:15:50.176Z,23.13
2018-04-17T10:18:17.717Z,23.24
2018-04-17T10:20:45.214Z,23.00
2018-04-17T10:23:12.699Z,23.13
2018-04-17T10:25:40.199Z,22.88
2018-04-17T10:28:07.739Z,22.82
2018-04-17T10:30:35.363Z,23.16
2018-04-17T10:33:02.817Z,23.40
2018-04-17T10:35:30.492Z,23.59
2018-04-17T10:37:57.976Z,23.67
2018-04-17T10:40:25.588Z,23.47
2018-04-17T10:42:53.113Z,23.21
2018-04-17T10:45:20.797Z,22.84
2018-04-17T10:47:48.304Z,22.61
2018-04-17T10:50:15.796Z,22.83
2018-04-17T10:52:43.317Z,23.03
2018-04-17T10:55:10.834Z,23.55
2018-04-17T10:57:38.463Z,23.71
2018-04-17T11:00:06.041Z,23.87
2018-04-17T11:02:33.568Z,24.10
2018-04-17T11:05:01.054Z,24.34
2018-04-17T11:07:28.523Z,24.47
2018-04-17T11:09:56.055Z,24.52
2018-04-17T11:12:23.530Z,24.63
2018-04-17T11:14:51.202Z,24.80
2018-04-17T11:17:18.705Z,24.76
2018-04-17T11:19:46.221Z,24.92
2018-04-17T11:22:13.908Z,25.06
2018-04-17T11:24:41.405Z,25.16
2018-04-17T11:27:08.999Z,25.35
2018-04-17T11:29:36.505Z,25.40
2018-04-17T11:32:04.186Z,25.05
2018-04-17T11:34:31.874Z,24.58
2018-04-17T11:36:59.819Z,24.59
2018-04-17T11:39:27.310Z,24.51
2018-04-17T11:41:54.862Z,24.80
2018-04-17T11:44:22.505Z,25.19
2018-04-17T11:46:50.065Z,25.89
2018-04-17T11:49:17.564Z,26.53
2018-04-17T11:51:45.108Z,26.53
2018-04-17T11:54:12.885Z,26.71
2018-04-17T11:56:40.383Z,27.04
2018-04-17T11:59:07.901Z,27.26
2018-04-17T12:01:35.437Z,27.64
2018-04-17T12:04:02.931Z,28.31
2018-04-17T12:06:30.501Z,29.50
2018-04-17T12:08:57.969Z,30.06
2018-04-17T12:11:25.425Z,31.09
2018-04-17T12:13:52.920Z,31.43
2018-04-17T12:16:20.429Z,32.93
2018-04-17T12:18:47.909Z,33.32
2018-04-17T12:21:15.416Z,33.18
2018-04-17T12:23:42.886Z,31.52
2018-04-17T12:26:10.406Z,30.64
2018-04-17T12:28:37.959Z,32.46
2018-04-17T12:31:05.464Z,34.06
2018-04-17T12:33:33.024Z,35.43
2018-04-17T12:36:00.773Z,36.73
2018-04-17T12:38:28.344Z,37.41
2018-04-17T12:40:58.193Z,37.72
2018-04-17T12:43:25.669Z,37.55
2018-04-17T12:45:53.150Z,38.76
2018-04-17T12:48:20.736Z,39.35
2018-04-17T12:50:48.250Z,39.86
2018-04-17T12:53:15.852Z,40.57
2018-04-17T12:55:43.353Z,41.02
2018-04-17T12:58:10.896Z,41.60
2018-04-17T13:00:38.368Z,41.60
2018-04-17T13:03:05.881Z,41.11
2018-04-17T13:05:33.372Z,41.05
2018-04-17T13:08:00.848Z,40.00
2018-04-17T13:10:28.448Z,40.56
2018-04-17T13:12:55.973Z,41.36
2018-04-17T13:15:23.527Z,41.82
2018-04-17T13:17:51.194Z,42.73
2018-04-17T13:20:18.712Z,43.04
2018-04-17T13:22:46.200Z,42.11
2018-04-17T13:25:13.707Z,41.38
2018-04-17T13:27:41.190Z,41.14
2018-04-17T13:30:08.682Z,41.73
2018-04-17T13:32:36.193Z,41.60
2018-04-17T13:35:03.693Z,42.49
2018-04-17T13:37:31.183Z,42.91
2018-04-17T13:39:58.696Z,42.93
2018-04-17T13:42:26.256Z,42.84
2018-04-17T13:44:53.696Z,42.01
2018-04-17T13:47:21.192Z,41.43
2018-04-17T13:49:48.673Z,42.50
2018-04-17T13:52:16.159Z,43.37
2018-04-17T13:54:43.859Z,43.13
2018-04-17T13:57:11.643Z,42.74
2018-04-17T13:59:44.578Z,43.68
2018-04-17T14:02:12.408Z,43.77
2018-04-17T14:04:40.012Z,42.48
2018-04-17T14:07:07.495Z,41.45
2018-04-17T14:09:35.016Z,41.88
2018-04-17T14:12:02.497Z,42.97
2018-04-17T14:14:30.010Z,43.50
2018-04-17T14:16:57.466Z,42.12
2018-04-17T14:19:24.930Z,39.95
2018-04-17T14:21:52.437Z,41.45
2018-04-17T14:24:19.947Z,42.55
2018-04-17T14:26:47.425Z,42.28
2018-04-17T14:29:14.937Z,43.44
2018-04-17T14:31:42.429Z,44.12
2018-04-17T14:34:16.123Z,44.21
2018-04-17T14:36:43.638Z,44.43
2018-04-17T14:39:11.224Z,44.52
2018-04-17T14:41:38.719Z,44.51
2018-04-17T14:44:06.232Z,44.73
2018-04-17T14:46:33.772Z,44.77
2018-04-17T14:49:01.992Z,45.50
2018-04-17T14:51:29.691Z,45.11
2018-04-17T14:53:57.207Z,45.26
2018-04-17T14:56:24.797Z,45.11
2018-04-17T14:58:52.267Z,45.55
2018-04-17T15:01:19.784Z,45.51
2018-04-17T15:03:47.273Z,44.91
2018-04-17T15:06:14.754Z,43.13
2018-04-17T15:08:42.227Z,41.39
2018-04-17T15:11:09.743Z,42.33
2018-04-17T15:13:37.235Z,42.97
2018-04-17T15:16:04.720Z,42.69
2018-04-17T15:18:32.195Z,43.49
2018-04-17T15:20:59.785Z,42.09
2018-04-17T15:23:27.281Z,41.52
2018-04-17T15:25:54.763Z,42.00
2018-04-17T15:28:22.247Z,42.64
2018-04-17T15:30:49.704Z,42.86
2018-04-17T15:33:17.227Z,43.08
2018-04-17T15:35:44.735Z,43.55
2018-04-17T15:38:12.181Z,43.36
2018-04-17T15:40:39.841Z,43.56
2018-04-17T15:43:07.338Z,43.54
2018-04-17T15:45:34.835Z,43.70
2018-04-17T15:48:02.411Z,43.13
2018-04-17T15:50:29.909Z,42.04
2018-04-17T15:52:57.391Z,40.30
2018-04-17T15:55:24.858Z,40.48
2018-04-17T15:57:52.361Z,39.90
2018-04-17T16:00:19.875Z,40.78
2018-04-17T16:02:47.415Z,39.92
2018-04-17T16:05:14.928Z,40.74
2018-04-17T16:07:42.434Z,40.32
2018-04-17T16:10:09.904Z,40.47
2018-04-17T16:12:37.407Z,40.39
2018-04-17T16:15:04.904Z,40.36
2018-04-17T16:17:32.460Z,40.02
2018-04-17T16:20:00.015Z,40.26
2018-04-17T16:22:27.501Z,39.95
2018-04-17T16:24:55.007Z,39.78
2018-04-17T16:27:22.491Z,39.74
2018-04-17T16:29:49.982Z,39.76
2018-04-17T16:32:17.505Z,39.29
2018-04-17T16:34:44.973Z,39.60
2018-04-17T16:37:12.445Z,39.31
2018-04-17T16:39:40.001Z,37.64
2018-04-17T16:42:07.481Z,37.03
2018-04-17T16:44:34.977Z,36.46
2018-04-17T16:47:02.487Z,36.94
2018-04-17T16:49:30.053Z,37.02
2018-04-17T16:51:57.555Z,37.17
2018-04-17T16:54:25.061Z,37.03
2018-04-17T16:56:52.576Z,36.54
2018-04-17T16:59:20.275Z,36.06
2018-04-17T17:01:47.751Z,35.89
2018-04-17T17:04:15.245Z,35.44
2018-04-17T17:06:42.723Z,34.13
2018-04-17T17:09:10.219Z,32.95
2018-04-17T17:11:37.908Z,31.76
2018-04-17T17:14:05.477Z,30.15
2018-04-17T17:16:33.254Z,29.30
2018-04-17T17:19:00.775Z,28.70
2018-04-17T17:21:28.316Z,28.15
2018-04-17T17:23:55.786Z,27.72
2018-04-17T17:26:23.614Z,27.35
2018-04-17T17:28:51.218Z,26.88
2018-04-17T17:31:19.846Z,26.30
2018-04-17T17:33:47.500Z,25.66
2018-04-17T17:36:15.030Z,25.45
2018-04-17T17:38:42.537Z,25.11
2018-04-17T17:41:10.260Z,24.92
2018-04-17T17:43:37.747Z,24.41
2018-04-17T17:46:05.272Z,24.30
2018-04-17T17:48:32.769Z,23.96
2018-04-17T17:51:00.391Z,23.62
2018-04-17T17:53:27.867Z,23.22
2018-04-17T17:55:55.333Z,23.04
2018-04-17T17:58:22.816Z,22.95
2018-04-17T18:00:50.301Z,22.65
2018-04-17T18:03:17.785Z,22.38
2018-04-17T18:05:45.311Z,22.16
2018-04-17T18:08:12.818Z,21.95
2018-04-17T18:10:40.402Z,21.66
2018-04-17T18:13:07.860Z,21.38
2018-04-17T18:15:35.502Z,21.12
2018-04-17T18:18:03.037Z,20.84
2018-04-17T18:20:30.555Z,20.58
2018-04-17T18:22:58.138Z,20.38
2018-04-17T18:25:25.598Z,20.27
2018-04-17T18:27:53.096Z,20.14
2018-04-17T18:30:20.688Z,20.00
2018-04-17T18:32:48.227Z,19.82
2018-04-17T18:35:15.749Z,19.68
2018-04-17T18:37:43.284Z,19.56
2018-04-17T18:40:10.860Z,19.44
2018-04-17T18:42:38.385Z,19.31
2018-04-17T18:45:06.835Z,19.24
2018-04-17T18:47:34.376Z,19.13
2018-04-17T18:50:01.861Z,18.97
2018-04-17T18:52:30.491Z,18.92
2018-04-17T18:54:58.034Z,18.77
2018-04-17T18:57:27.603Z,18.69
2018-04-17T18:59:58.317Z,18.56
2018-04-17T19:02:26.195Z,18.49
2018-04-17T19:04:55.191Z,18.41
2018-04-17T19:07:22.739Z,18.36
2018-04-17T19:09:50.352Z,18.28
2018-04-17T19:12:17.893Z,18.20
2018-04-17T19:14:45.375Z,18.12
2018-04-17T19:17:13.003Z,18.08
2018-04-17T19:19:40.936Z,17.99
2018-04-17T19:22:08.594Z,17.93
2018-04-17T19:24:36.178Z,17.86
2018-04-17T19:27:05.209Z,17.85
2018-04-17T19:29:35.981Z,17.75
2018-04-17T19:32:03.723Z,17.68
2018-04-17T19:34:36.409Z,17.64
2018-04-17T19:37:04.541Z,17.59
2018-04-17T19:39:32.034Z,17.53
2018-04-17T19:41:59.617Z,17.51
2018-04-17T19:44:27.120Z,17.44
2018-04-17T19:46:54.600Z,17.42
2018-04-17T19:49:22.069Z,17.41
2018-04-17T19:51:49.570Z,17.36
2018-04-17T19:54:17.381Z,17.51
2018-04-17T19:56:44.934Z,17.59
2018-04-17T19:59:13.345Z,17.51
2018-04-17T20:01:41.816Z,17.41
2018-04-17T20:04:09.318Z,17.31
2018-04-17T20:06:36.826Z,17.24
2018-04-17T20:09:04.413Z,17.17
2018-04-17T20:11:31.948Z,17.10
2018-04-17T20:13:59.453Z,17.05
2018-04-17T20:16:26.929Z,17.01
2018-04-17T20:18:54.401Z,17.02
2018-04-17T20:21:22.309Z,16.94
2018-04-17T20:23:49.861Z,16.88
2018-04-17T20:26:17.556Z,16.83
2018-04-17T20:28:44.992Z,16.77
2018-04-17T20:31:12.527Z,16.75
2018-04-17T20:33:40.009Z,16.70
2018-04-17T20:36:07.501Z,16.68
2018-04-17T20:38:35.011Z,16.64
2018-04-17T20:41:02.510Z,16.62
2018-04-17T20:43:29.984Z,16.60
2018-04-17T20:45:57.646Z,16.58
2018-04-17T20:48:25.109Z,16.53
2018-04-17T20:50:52.600Z,16.51
2018-04-17T20:53:20.103Z,16.49
2018-04-17T20:55:47.621Z,16.43
2018-04-17T20:58:15.164Z,16.37
2018-04-17T21:00:42.661Z,16.29
2018-04-17T21:03:10.585Z,16.20
2018-04-17T21:05:38.191Z,16.12
2018-04-17T21:08:05.699Z,16.08
2018-04-17T21:10:33.606Z,16.05
2018-04-17T21:13:01.099Z,16.00
2018-04-17T21:15:28.714Z,15.97
2018-04-17T21:17:57.318Z,15.95
2018-04-17T21:20:24.789Z,15.92
2018-04-17T21:22:52.265Z,15.89
2018-04-17T21:25:19.767Z,15.86
2018-04-17T21:27:47.269Z,15.92
2018-04-17T21:30:14.748Z,15.91
2018-04-17T21:32:42.235Z,15.82
2018-04-17T21:35:09.703Z,15.72
2018-04-17T21:37:37.210Z,15.63
2018-04-17T21:40:04.669Z,15.50
2018-04-17T21:42:32.157Z,15.52
2018-04-17T21:44:59.644Z,15.45
2018-04-17T21:47:27.158Z,15.40
2018-04-17T21:49:54.677Z,15.34
2018-04-17T21:52:22.133Z,15.26
2018-04-17T21:54:49.638Z,15.18
2018-04-17T21:57:18.284Z,15.09
2018-04-17T21:59:45.786Z,15.02
2018-04-17T22:02:13.302Z,14.99
2018-04-17T22:04:40.778Z,14.95
2018-04-17T22:07:08.347Z,14.95
2018-04-17T22:09:35.864Z,14.94
2018-04-17T22:12:03.347Z,14.85
2018-04-17T22:14:30.865Z,14.83
2018-04-17T22:16:58.364Z,14.86
2018-04-17T22:19:25.841Z,14.81
2018-04-17T22:21:53.363Z,14.75
2018-04-17T22:24:20.825Z,14.66
2018-04-17T22:26:48.322Z,14.56
2018-04-17T22:29:15.828Z,14.51
2018-04-17T22:31:43.371Z,14.46
2018-04-17T22:34:10.838Z,14.30
2018-04-17T22:36:38.336Z,14.25
2018-04-17T22:39:06.748Z,14.15
2018-04-17T22:41:34.259Z,14.11
2018-04-17T22:44:01.752Z,14.08
2018-04-17T22:46:29.240Z,14.03
2018-04-17T22:48:56.771Z,13.98
2018-04-17T22:51:24.261Z,13.95
2018-04-17T22:53:51.713Z,13.89
2018-04-17T22:56:19.228Z,13.83
2018-04-17T22:58:46.693Z,13.78
2018-04-17T23:01:14.207Z,13.75
2018-04-17T23:03:41.693Z,13.73
2018-04-17T23:06:09.193Z,13.68
2018-04-17T23:08:36.709Z,13.66
2018-04-17T23:11:04.193Z,13.60
2018-04-17T23:13:31.720Z,13.54
2018-04-17T23:15:59.195Z,13.51
2018-04-17T23:18:26.662Z,13.48
2018-04-17T23:20:54.123Z,13.44
2018-04-17T23:23:21.601Z,13.39
2018-04-17T23:25:49.081Z,13.32
2018-04-17T23:28:16.596Z,13.26
2018-04-17T23:30:44.219Z,13.19
2018-04-17T23:33:11.726Z,13.16
2018-04-17T23:35:39.288Z,13.12
2018-04-17T23:38:06.805Z,13.10
2018-04-17T23:40:34.400Z,13.06
2018-04-17T23:43:01.932Z,13.05
2018-04-17T23:45:29.425Z,13.04
2018-04-17T23:47:56.968Z,13.03
2018-04-17T23:50:24.490Z,13.00
2018-04-17T23:55:25.905Z,12.86
2018-04-17T23:57:53.399Z,12.81
